Time;durP1;ratioP1;P1;durP2;ratioP2;P2;SDS_P1;SDS_P2;PMS_P1;PMS_P2;Temp;Humidity;BMP_temperature;BMP_pressure;BME280_temperature;BME280_humidity;BME280_pressure;Samples;Min_cycle;Max_cycle;Signal;HPM_P1;HPM_P2
2021/11/21 00:01:02;;;;;;;25.50;17.90;;;5.30;99.90;;;;;;5023331;28;20198;-88
2021/11/21 00:03:28;;;;;;;22.83;17.10;;;5.40;99.90;;;;;;4998564;28;20300;-88
2021/11/21 00:05:54;;;;;;;20.50;15.60;;;5.40;99.90;;;;;;5016475;28;20277;-87
2021/11/21 00:08:20;;;;;;;25.37;17.10;;;5.30;99.90;;;;;;4993653;28;20281;-87
2021/11/21 00:10:46;;;;;;;22.83;17.40;;;5.10;99.90;;;;;;5001568;28;20221;-87
2021/11/21 00:13:12;;;;;;;20.40;16.90;;;5.10;99.90;;;;;;5012747;28;20181;-87
2021/11/21 00:15:41;;;;;;;22.53;16.93;;;5.00;99.90;;;;;;5001084;28;20197;-87
2021/11/21 00:18:09;;;;;;;22.17;17.43;;;5.00;99.90;;;;;;5017615;28;20243;-87
2021/11/21 00:20:42;;;;;;;21.10;17.20;;;5.00;99.90;;;;;;5012216;28;20205;-87
2021/11/21 00:23:08;;;;;;;20.30;17.70;;;5.10;99.90;;;;;;5014136;28;20178;-88
2021/11/21 00:25:34;;;;;;;25.07;18.13;;;5.00;99.90;;;;;;5015160;28;20213;-88
2021/11/21 00:28:01;;;;;;;24.93;19.13;;;5.10;99.90;;;;;;4998456;28;20293;-88
2021/11/21 00:30:27;;;;;;;22.93;18.33;;;5.00;99.90;;;;;;5003033;28;21162;-87
2021/11/21 00:32:53;;;;;;;21.83;18.67;;;5.00;99.90;;;;;;5013395;28;20185;-87
2021/11/21 00:35:19;;;;;;;23.53;18.47;;;5.10;99.90;;;;;;5011529;28;20206;-87
2021/11/21 00:37:45;;;;;;;23.13;17.80;;;5.00;99.90;;;;;;5019450;28;20205;-87
2021/11/21 00:40:11;;;;;;;20.23;16.87;;;5.10;99.90;;;;;;5001382;28;20223;-87
2021/11/21 00:42:37;;;;;;;25.93;18.37;;;5.10;99.90;;;;;;5016163;28;20194;-88
2021/11/21 00:45:05;;;;;;;22.67;17.03;;;5.10;99.90;;;;;;5018874;28;20645;-87
2021/11/21 00:47:31;;;;;;;21.70;17.37;;;5.00;99.90;;;;;;4993389;28;20190;-87
2021/11/21 00:49:57;;;;;;;23.13;17.20;;;5.00;99.90;;;;;;5021203;28;20866;-87
2021/11/21 00:52:23;;;;;;;19.90;17.20;;;5.10;99.90;;;;;;5018703;28;20198;-87
2021/11/21 00:54:54;;;;;;;22.00;17.83;;;5.10;99.90;;;;;;5015423;28;20198;-87
2021/11/21 00:57:20;;;;;;;21.00;17.20;;;5.10;99.90;;;;;;5012567;28;20189;-87
2021/11/21 00:59:46;;;;;;;20.17;17.37;;;5.30;99.90;;;;;;5000991;28;20217;-87
2021/11/21 01:02:14;;;;;;;22.53;18.73;;;5.30;99.90;;;;;;4996886;28;20243;-86
2021/11/21 01:04:42;;;;;;;20.30;17.47;;;5.30;99.90;;;;;;5020486;28;20246;-88
2021/11/21 01:07:09;;;;;;;22.80;18.53;;;5.30;99.90;;;;;;5018789;28;20224;-88
2021/11/21 01:09:35;;;;;;;22.67;19.03;;;5.20;99.90;;;;;;5005374;28;20763;-89
2021/11/21 01:12:01;;;;;;;23.03;19.23;;;5.20;99.90;;;;;;5020151;28;20190;-88
2021/11/21 01:14:29;;;;;;;23.50;18.27;;;5.20;99.90;;;;;;4998282;28;20204;-87
2021/11/21 01:16:56;;;;;;;22.40;18.67;;;5.10;99.90;;;;;;5018353;28;20551;-88
2021/11/21 01:19:22;;;;;;;22.90;18.70;;;5.20;99.90;;;;;;5022449;28;20224;-88
2021/11/21 01:21:48;;;;;;;20.20;17.80;;;5.30;99.90;;;;;;5012074;28;20193;-88
2021/11/21 01:24:13;;;;;;;20.83;17.90;;;5.20;99.90;;;;;;5014378;28;20214;-88
2021/11/21 01:26:39;;;;;;;21.77;17.80;;;5.30;99.90;;;;;;5009156;28;20221;-88
2021/11/21 01:29:05;;;;;;;19.87;17.20;;;5.20;99.90;;;;;;5010091;28;20318;-88
2021/11/21 01:31:31;;;;;;;18.33;16.33;;;5.10;99.90;;;;;;5016966;28;20186;-88
2021/11/21 01:33:57;;;;;;;18.53;16.53;;;5.10;99.90;;;;;;4992895;28;20201;-87
2021/11/21 01:36:23;;;;;;;22.17;18.17;;;5.00;99.90;;;;;;5021155;28;20658;-88
2021/11/21 01:38:49;;;;;;;20.33;16.50;;;5.10;99.90;;;;;;5005223;28;20232;-88
2021/11/21 01:41:15;;;;;;;23.33;19.20;;;5.20;99.90;;;;;;5015270;28;20197;-88
2021/11/21 01:43:42;;;;;;;22.90;18.30;;;5.30;99.90;;;;;;5018038;28;20293;-88
2021/11/21 01:46:08;;;;;;;24.03;18.40;;;5.30;99.90;;;;;;5012602;28;20201;-88
2021/11/21 01:48:35;;;;;;;22.63;18.37;;;5.30;99.90;;;;;;5014425;28;20233;-88
2021/11/21 01:51:04;;;;;;;21.33;17.60;;;5.30;99.90;;;;;;5022536;28;20189;-88
2021/11/21 01:53:30;;;;;;;23.30;18.03;;;5.30;99.90;;;;;;5025093;28;20204;-88
2021/11/21 01:55:57;;;;;;;21.53;17.23;;;5.40;99.90;;;;;;5000855;28;20190;-88
2021/11/21 01:58:23;;;;;;;20.40;17.50;;;5.30;99.90;;;;;;5016821;28;20223;-88
2021/11/21 02:00:50;;;;;;;20.23;16.47;;;5.20;99.90;;;;;;5000737;28;20194;-88
2021/11/21 02:03:17;;;;;;;21.23;17.40;;;5.30;99.90;;;;;;5016446;28;20197;-88
2021/11/21 02:05:48;;;;;;;19.43;16.67;;;5.40;99.90;;;;;;5004050;28;20204;-88
2021/11/21 02:08:14;;;;;;;19.77;16.80;;;5.40;99.90;;;;;;5018179;28;20200;-88
2021/11/21 02:10:40;;;;;;;18.57;16.57;;;5.40;99.90;;;;;;5006000;28;20200;-88
2021/11/21 02:13:07;;;;;;;18.80;16.60;;;5.40;99.90;;;;;;5015369;28;20197;-88
2021/11/21 02:15:34;;;;;;;18.00;16.10;;;5.30;99.90;;;;;;5022358;28;20194;-88
2021/11/21 02:18:00;;;;;;;18.17;16.10;;;5.30;99.90;;;;;;5002911;28;20208;-88
2021/11/21 02:20:47;;;;;;;20.37;15.90;;;5.40;99.90;;;;;;5018645;28;20614;-88
2021/11/21 02:23:14;;;;;;;18.47;15.37;;;5.30;99.90;;;;;;5016677;28;20193;-88
2021/11/21 02:25:41;;;;;;;18.60;16.30;;;5.40;99.90;;;;;;5002690;28;20283;-88
2021/11/21 02:28:07;;;;;;;18.23;16.03;;;5.40;99.90;;;;;;4997809;28;20285;-88
2021/11/21 02:30:34;;;;;;;18.73;15.97;;;5.30;99.90;;;;;;5019289;28;20216;-88
2021/11/21 02:33:00;;;;;;;18.90;16.27;;;5.30;99.90;;;;;;4994892;28;20182;-88
2021/11/21 02:35:26;;;;;;;19.30;15.87;;;5.30;99.90;;;;;;5015488;28;20201;-87
2021/11/21 02:37:52;;;;;;;20.73;16.70;;;5.20;99.90;;;;;;5016620;28;20212;-88
2021/11/21 02:40:19;;;;;;;24.83;15.97;;;5.10;99.90;;;;;;5029142;28;20213;-88
2021/11/21 02:42:45;;;;;;;19.47;16.67;;;5.10;99.90;;;;;;4996443;28;20256;-88
2021/11/21 02:45:14;;;;;;;17.07;15.23;;;5.10;99.90;;;;;;5011690;28;20221;-88
2021/11/21 02:47:40;;;;;;;18.43;16.40;;;5.10;99.90;;;;;;5019024;28;20190;-88
2021/11/21 02:50:18;;;;;;;18.60;15.00;;;5.10;99.90;;;;;;5014225;28;20205;-87
2021/11/21 02:52:45;;;;;;;19.50;15.40;;;5.10;99.90;;;;;;5018902;28;20197;-87
2021/11/21 02:55:11;;;;;;;16.03;14.27;;;5.20;99.90;;;;;;5011213;28;20244;-87
2021/11/21 02:57:37;;;;;;;20.00;16.80;;;5.10;99.90;;;;;;5017265;28;20686;-87
2021/11/21 03:00:06;;;;;;;17.37;15.57;;;5.00;99.90;;;;;;5016115;28;20217;-87
2021/11/21 03:02:32;;;;;;;19.20;16.27;;;5.10;99.90;;;;;;5001231;28;20269;-88
2021/11/21 03:04:58;;;;;;;18.20;16.23;;;5.10;99.90;;;;;;5014697;28;20911;-87
2021/11/21 03:07:24;;;;;;;20.23;16.13;;;5.20;99.90;;;;;;5017299;28;20204;-87
2021/11/21 03:09:51;;;;;;;19.33;15.97;;;5.20;99.90;;;;;;5012688;28;20229;-87
2021/11/21 03:12:21;;;;;;;17.97;15.03;;;5.10;99.90;;;;;;5012189;28;20198;-87
2021/11/21 03:14:48;;;;;;;18.87;16.20;;;5.20;99.90;;;;;;5011257;28;20202;-87
2021/11/21 03:17:15;;;;;;;19.87;17.03;;;5.20;99.90;;;;;;5009530;28;20190;-87
2021/11/21 03:19:41;;;;;;;19.37;15.63;;;5.10;99.90;;;;;;5015575;28;20292;-87
2021/11/21 03:22:07;;;;;;;20.07;15.87;;;5.00;99.90;;;;;;4999057;28;20198;-87
2021/11/21 03:24:33;;;;;;;18.73;15.77;;;5.10;99.90;;;;;;5011149;28;20214;-87
2021/11/21 03:26:59;;;;;;;20.23;17.33;;;5.10;99.90;;;;;;5012559;28;20561;-87
2021/11/21 03:29:24;;;;;;;20.73;17.53;;;5.20;99.90;;;;;;5015546;28;20219;-87
2021/11/21 03:31:50;;;;;;;19.37;16.90;;;4.90;99.90;;;;;;5013416;28;20241;-88
2021/11/21 03:34:16;;;;;;;20.23;16.93;;;4.90;99.90;;;;;;5010710;28;20185;-87
2021/11/21 03:36:42;;;;;;;18.57;16.50;;;4.90;99.90;;;;;;4999428;28;20260;-87
2021/11/21 03:39:08;;;;;;;18.07;16.07;;;5.00;99.90;;;;;;5001205;28;20217;-87
2021/11/21 03:41:36;;;;;;;16.93;14.77;;;5.00;99.90;;;;;;5014590;28;20201;-87
2021/11/21 03:44:03;;;;;;;17.90;13.43;;;5.10;99.90;;;;;;5010251;28;20217;-89
2021/11/21 03:46:28;;;;;;;17.00;13.40;;;5.20;99.90;;;;;;5024366;28;20198;-87
2021/11/21 03:48:54;;;;;;;16.27;14.57;;;5.20;99.90;;;;;;5021784;28;20845;-88
2021/11/21 03:51:20;;;;;;;21.67;15.00;;;5.00;99.90;;;;;;5004315;28;20277;-88
2021/11/21 03:53:46;;;;;;;19.83;16.10;;;5.00;99.90;;;;;;5019502;28;20236;-87
2021/11/21 03:56:12;;;;;;;18.80;15.90;;;4.70;99.90;;;;;;5017434;28;20292;-87
2021/11/21 03:58:37;;;;;;;24.97;16.50;;;4.80;99.90;;;;;;5012203;28;20225;-88
2021/11/21 04:01:05;;;;;;;20.13;16.33;;;4.70;99.90;;;;;;5017807;28;20253;-88
2021/11/21 04:03:34;;;;;;;18.10;15.37;;;4.90;99.90;;;;;;5001755;28;20194;-88
2021/11/21 04:06:00;;;;;;;21.20;16.30;;;4.70;99.90;;;;;;5018404;28;20277;-88
2021/11/21 04:08:25;;;;;;;21.50;16.10;;;4.50;99.90;;;;;;5010047;28;20213;-88
2021/11/21 04:10:51;;;;;;;20.50;15.63;;;4.60;99.90;;;;;;5011315;28;20215;-87
2021/11/21 04:13:17;;;;;;;19.93;16.43;;;4.70;99.90;;;;;;5022416;28;20198;-88
2021/11/21 04:15:43;;;;;;;20.60;15.43;;;4.80;99.90;;;;;;5011954;28;20224;-88
2021/11/21 04:18:09;;;;;;;19.00;15.50;;;4.90;99.90;;;;;;5002682;28;21004;-88
2021/11/21 04:20:35;;;;;;;22.20;17.07;;;5.00;99.90;;;;;;5014605;28;20339;-88
2021/11/21 04:23:01;;;;;;;18.13;15.77;;;4.90;99.90;;;;;;5017295;28;20224;-88
2021/11/21 04:25:27;;;;;;;17.93;15.43;;;4.80;99.90;;;;;;5005543;28;20590;-88
2021/11/21 04:27:53;;;;;;;21.53;16.70;;;4.90;99.90;;;;;;5013208;28;20206;-88
2021/11/21 04:30:19;;;;;;;22.90;17.40;;;4.90;99.90;;;;;;5014395;28;20312;-88
2021/11/21 04:32:46;;;;;;;18.07;15.07;;;4.90;99.90;;;;;;5015024;28;20696;-87
2021/11/21 04:35:15;;;;;;;20.13;15.90;;;4.90;99.90;;;;;;5005558;28;20198;-88
2021/11/21 04:37:41;;;;;;;19.57;15.27;;;4.80;99.90;;;;;;5013097;28;20201;-88
2021/11/21 04:40:09;;;;;;;19.40;14.73;;;4.60;99.90;;;;;;5000767;28;20205;-88
2021/11/21 04:42:35;;;;;;;21.03;14.67;;;4.60;99.90;;;;;;5013776;28;20186;-88
2021/11/21 04:45:01;;;;;;;18.57;13.40;;;4.60;99.90;;;;;;5012848;28;20245;-88
2021/11/21 04:47:27;;;;;;;19.57;14.50;;;4.50;99.90;;;;;;5015418;28;20190;-88
2021/11/21 04:49:53;;;;;;;16.83;12.23;;;4.40;99.90;;;;;;4998583;28;20249;-88
2021/11/21 04:52:19;;;;;;;15.10;12.00;;;4.40;99.90;;;;;;5012641;28;20531;-89
2021/11/21 04:54:45;;;;;;;13.60;11.97;;;4.40;99.90;;;;;;4999525;28;20221;-88
2021/11/21 04:57:11;;;;;;;16.23;12.50;;;4.50;99.90;;;;;;4992736;28;20197;-87
2021/11/21 04:59:37;;;;;;;16.07;11.90;;;4.40;99.90;;;;;;4999472;28;20221;-88
2021/11/21 05:02:04;;;;;;;12.17;10.40;;;4.50;99.90;;;;;;5012370;28;20244;-87
2021/11/21 05:04:30;;;;;;;12.70;10.57;;;4.50;99.90;;;;;;4995297;28;20213;-87
2021/11/21 05:06:56;;;;;;;13.83;10.90;;;4.50;99.90;;;;;;5018120;28;20181;-87
2021/11/21 05:09:22;;;;;;;13.00;11.33;;;4.50;99.90;;;;;;5020410;28;20209;-87
2021/11/21 05:11:48;;;;;;;13.80;10.07;;;4.50;99.90;;;;;;5003835;28;20196;-86
2021/11/21 05:14:17;;;;;;;13.37;10.33;;;4.60;99.90;;;;;;5013095;28;20192;-88
2021/11/21 05:16:43;;;;;;;14.00;11.90;;;4.50;99.90;;;;;;5020611;28;20197;-87
2021/11/21 05:19:08;;;;;;;15.70;11.73;;;4.50;99.90;;;;;;5014206;28;20907;-87
2021/11/21 05:21:34;;;;;;;13.27;11.87;;;4.50;99.90;;;;;;5006819;28;20265;-87
2021/11/21 05:24:01;;;;;;;15.43;12.50;;;4.50;99.90;;;;;;5003413;28;20243;-87
2021/11/21 05:26:27;;;;;;;13.30;11.27;;;4.60;99.90;;;;;;5017290;28;20183;-87
2021/11/21 05:28:53;;;;;;;13.80;11.10;;;4.50;99.90;;;;;;5014025;28;20209;-87
2021/11/21 05:31:19;;;;;;;16.83;11.93;;;4.70;99.90;;;;;;5003214;28;20197;-87
2021/11/21 05:33:45;;;;;;;15.90;12.17;;;4.70;99.90;;;;;;5001665;28;20778;-87
2021/11/21 05:36:11;;;;;;;16.93;12.70;;;4.70;99.90;;;;;;5017093;28;20273;-87
2021/11/21 05:38:37;;;;;;;15.43;12.23;;;4.60;99.90;;;;;;5018625;28;20284;-88
2021/11/21 05:41:03;;;;;;;15.40;12.17;;;4.50;99.90;;;;;;5016256;28;20194;-88
2021/11/21 05:43:28;;;;;;;15.57;12.03;;;4.50;99.90;;;;;;5003436;28;20197;-88
2021/11/21 05:45:55;;;;;;;16.27;13.47;;;4.50;99.90;;;;;;5016743;28;20200;-88
2021/11/21 05:48:21;;;;;;;14.80;11.73;;;4.50;99.90;;;;;;4973843;28;20295;-88
2021/11/21 05:50:46;;;;;;;16.17;11.77;;;4.50;99.90;;;;;;5016131;28;20573;-87
2021/11/21 05:53:13;;;;;;;13.57;11.70;;;4.60;99.90;;;;;;5019953;28;20190;-88
2021/11/21 05:55:39;;;;;;;17.10;14.07;;;4.60;99.90;;;;;;5016777;28;20217;-88
2021/11/21 05:58:04;;;;;;;16.47;13.13;;;4.70;99.90;;;;;;5017035;28;20194;-88
2021/11/21 06:00:30;;;;;;;15.33;11.93;;;4.60;99.90;;;;;;4997818;28;20190;-88
2021/11/21 06:02:56;;;;;;;19.37;13.53;;;4.50;99.90;;;;;;5013273;28;20190;-88
2021/11/21 06:05:22;;;;;;;15.37;11.60;;;4.50;99.90;;;;;;4998904;28;20336;-88
2021/11/21 06:07:48;;;;;;;15.93;12.63;;;4.60;99.90;;;;;;5009251;28;20189;-88
2021/11/21 06:10:15;;;;;;;20.53;13.40;;;4.40;99.90;;;;;;5002219;28;20340;-88
2021/11/21 06:12:41;;;;;;;15.53;12.67;;;4.40;99.90;;;;;;5016843;28;20182;-88
2021/11/21 06:15:09;;;;;;;15.13;11.67;;;4.40;99.90;;;;;;5000971;28;20208;-88
2021/11/21 06:17:36;;;;;;;16.67;12.60;;;4.50;99.90;;;;;;4996059;28;20194;-88
2021/11/21 06:20:04;;;;;;;15.50;11.93;;;4.50;99.90;;;;;;5000537;28;20216;-88
2021/11/21 06:22:30;;;;;;;15.90;12.83;;;4.60;99.90;;;;;;5016884;28;20182;-88
2021/11/21 06:24:56;;;;;;;19.43;12.53;;;4.50;99.90;;;;;;4994475;28;20213;-88
2021/11/21 06:27:22;;;;;;;21.17;13.60;;;4.40;99.90;;;;;;5011643;28;20197;-88
2021/11/21 06:29:48;;;;;;;19.60;15.80;;;4.50;99.90;;;;;;5014172;28;20213;-88
2021/11/21 06:32:14;;;;;;;17.33;12.57;;;4.60;99.90;;;;;;5012732;28;20189;-88
2021/11/21 06:34:39;;;;;;;19.73;16.03;;;4.70;99.90;;;;;;5004447;28;20185;-88
2021/11/21 06:37:07;;;;;;;17.70;12.47;;;4.70;99.90;;;;;;5020050;28;20197;-88
2021/11/21 06:39:33;;;;;;;14.63;11.43;;;4.60;99.90;;;;;;5000194;28;20226;-88
2021/11/21 06:41:59;;;;;;;16.87;11.60;;;4.60;99.90;;;;;;5014866;28;20280;-88
2021/11/21 06:44:25;;;;;;;14.23;10.20;;;4.60;99.90;;;;;;5019070;28;20790;-87
2021/11/21 06:46:51;;;;;;;15.80;14.10;;;4.60;99.90;;;;;;5017042;28;20217;-88
2021/11/21 06:49:17;;;;;;;13.77;9.73;;;4.50;99.90;;;;;;5002076;28;20309;-87
2021/11/21 06:51:44;;;;;;;12.30;9.77;;;4.50;99.90;;;;;;5022357;28;20252;-88
2021/11/21 06:54:10;;;;;;;13.20;9.30;;;4.60;99.90;;;;;;5018629;28;20196;-87
2021/11/21 06:56:37;;;;;;;14.50;9.37;;;4.60;99.90;;;;;;5016410;28;20260;-88
2021/11/21 06:59:04;;;;;;;13.43;9.70;;;4.60;99.90;;;;;;5017941;28;20209;-88
2021/11/21 07:01:30;;;;;;;11.13;9.07;;;4.60;99.90;;;;;;5014020;28;20685;-88
2021/11/21 07:03:56;;;;;;;9.87;8.33;;;4.60;99.90;;;;;;5000100;28;20233;-87
2021/11/21 07:06:39;;;;;;;12.20;8.60;;;4.60;99.90;;;;;;5018509;28;20204;-87
2021/11/21 07:09:08;;;;;;;10.30;8.60;;;4.60;99.90;;;;;;5016202;28;20210;-86
2021/11/21 07:11:35;;;;;;;9.87;8.33;;;4.60;99.90;;;;;;5015827;28;20182;-88
2021/11/21 07:14:02;;;;;;;9.80;8.53;;;4.60;99.90;;;;;;5000463;28;20189;-88
2021/11/21 07:16:28;;;;;;;9.83;7.87;;;4.60;99.90;;;;;;5001911;28;20205;-88
2021/11/21 07:18:54;;;;;;;8.93;7.30;;;4.60;99.90;;;;;;5022635;28;20216;-88
2021/11/21 07:21:20;;;;;;;9.63;7.93;;;4.60;99.90;;;;;;5023429;28;20197;-88
2021/11/21 07:23:46;;;;;;;10.67;7.87;;;4.60;99.90;;;;;;5015157;28;20193;-88
2021/11/21 07:26:12;;;;;;;8.60;6.97;;;4.70;99.90;;;;;;5024329;28;20673;-86
2021/11/21 07:28:39;;;;;;;8.90;7.37;;;4.80;99.50;;;;;;5019579;28;20258;-86
2021/11/21 07:31:04;;;;;;;11.83;6.60;;;4.70;98.50;;;;;;5022098;28;20550;-88
2021/11/21 07:33:33;;;;;;;7.00;6.03;;;4.70;99.00;;;;;;5008848;28;20192;-87
2021/11/21 07:35:59;;;;;;;6.90;5.80;;;4.60;99.70;;;;;;4991094;28;20212;-88
2021/11/21 07:38:27;;;;;;;8.73;6.60;;;4.70;99.60;;;;;;5001826;28;20209;-88
2021/11/21 07:40:53;;;;;;;6.60;5.67;;;4.70;99.00;;;;;;4990230;28;20230;-88
2021/11/21 07:43:20;;;;;;;7.13;5.60;;;4.70;98.70;;;;;;5017622;28;20194;-88
2021/11/21 07:45:46;;;;;;;6.63;5.00;;;4.80;98.20;;;;;;5016151;28;20209;-88
2021/11/21 07:48:12;;;;;;;6.47;4.80;;;4.90;97.90;;;;;;5012869;28;20321;-88
2021/11/21 07:50:38;;;;;;;6.13;4.87;;;4.80;97.10;;;;;;5015281;28;20189;-88
2021/11/21 07:53:04;;;;;;;7.30;5.53;;;4.80;97.10;;;;;;4996877;28;20246;-88
2021/11/21 07:55:30;;;;;;;6.83;5.00;;;4.60;98.00;;;;;;5014790;28;20186;-88
2021/11/21 07:57:55;;;;;;;6.50;5.20;;;4.50;99.90;;;;;;5015126;28;20207;-88
2021/11/21 08:00:21;;;;;;;6.27;4.60;;;4.50;99.70;;;;;;5011482;28;20225;-87
2021/11/21 08:02:47;;;;;;;6.30;4.30;;;4.70;98.70;;;;;;5015510;28;20193;-88
2021/11/21 08:05:13;;;;;;;10.30;4.53;;;4.70;97.20;;;;;;5011347;28;20218;-88
2021/11/21 08:07:39;;;;;;;5.93;3.80;;;4.80;97.70;;;;;;5016044;28;20186;-88
2021/11/21 08:10:06;;;;;;;6.43;3.93;;;4.90;96.00;;;;;;5011101;28;20818;-88
2021/11/21 08:12:32;;;;;;;5.33;4.50;;;5.00;96.20;;;;;;5008914;28;20177;-88
2021/11/21 08:14:58;;;;;;;5.70;4.50;;;5.00;96.00;;;;;;5008812;28;20209;-88
2021/11/21 08:17:24;;;;;;;5.97;4.50;;;5.00;96.30;;;;;;5011702;28;20700;-87
2021/11/21 08:19:50;;;;;;;6.07;4.73;;;5.00;96.30;;;;;;5010563;28;20264;-88
2021/11/21 08:22:16;;;;;;;7.27;5.27;;;5.00;95.80;;;;;;5003797;28;20273;-87
2021/11/21 08:24:42;;;;;;;9.37;6.00;;;4.80;97.90;;;;;;5013454;28;20218;-87
2021/11/21 08:27:10;;;;;;;6.60;5.90;;;4.70;98.20;;;;;;5013536;28;20194;-88
2021/11/21 08:29:36;;;;;;;8.93;6.93;;;4.80;99.00;;;;;;5001510;28;20205;-88
2021/11/21 08:32:03;;;;;;;8.57;7.13;;;4.80;98.70;;;;;;4999369;28;20209;-88
2021/11/21 08:34:29;;;;;;;10.90;7.97;;;4.70;99.70;;;;;;5014402;28;20186;-88
2021/11/21 08:36:55;;;;;;;8.83;6.57;;;4.50;99.90;;;;;;5018435;28;20240;-88
2021/11/21 08:39:21;;;;;;;8.70;7.07;;;4.70;99.90;;;;;;5007697;28;20265;-88
2021/11/21 08:41:50;;;;;;;7.57;6.17;;;4.80;99.90;;;;;;5016205;28;20204;-88
2021/11/21 08:44:16;;;;;;;8.57;6.07;;;4.80;99.90;;;;;;5007364;28;20217;-88
2021/11/21 08:46:42;;;;;;;9.73;6.80;;;4.80;99.90;;;;;;4983254;28;20304;-88
2021/11/21 08:49:08;;;;;;;10.13;6.43;;;4.70;99.90;;;;;;5018172;28;20223;-88
2021/11/21 08:51:34;;;;;;;9.17;6.93;;;4.70;99.90;;;;;;5018356;28;20190;-88
2021/11/21 08:54:00;;;;;;;8.37;5.57;;;4.80;99.90;;;;;;5016178;28;20209;-88
2021/11/21 08:56:26;;;;;;;7.77;6.00;;;4.70;99.70;;;;;;5015362;28;20193;-88
2021/11/21 08:58:51;;;;;;;8.40;6.33;;;4.80;99.30;;;;;;5017001;28;20303;-87
2021/11/21 09:01:17;;;;;;;8.77;5.87;;;4.80;99.40;;;;;;5011989;28;20202;-87
2021/11/21 09:03:43;;;;;;;8.30;6.40;;;4.70;99.80;;;;;;5001203;28;20201;-88
2021/11/21 09:06:09;;;;;;;7.33;5.57;;;4.80;99.60;;;;;;5017002;28;20201;-88
2021/11/21 09:08:35;;;;;;;7.20;4.90;;;5.10;98.80;;;;;;5023704;28;20217;-88
2021/11/21 09:11:01;;;;;;;5.80;5.13;;;5.10;97.60;;;;;;5018950;28;20221;-89
2021/11/21 09:13:33;;;;;;;7.43;6.73;;;5.20;96.40;;;;;;5019024;28;20186;-87
2021/11/21 09:15:59;;;;;;;5.60;4.33;;;5.40;95.20;;;;;;5015280;28;20197;-87
2021/11/21 09:18:26;;;;;;;5.90;3.93;;;5.50;93.60;;;;;;5015336;28;20213;-87
2021/11/21 09:20:54;;;;;;;4.47;4.00;;;5.60;93.70;;;;;;5010456;28;20228;-87
2021/11/21 09:23:21;;;;;;;4.93;4.10;;;5.50;94.00;;;;;;5008703;28;20193;-87
2021/11/21 09:25:47;;;;;;;5.53;4.07;;;5.50;95.00;;;;;;5008624;28;20845;-88
2021/11/21 09:28:13;;;;;;;6.23;4.10;;;5.40;94.70;;;;;;4980487;28;20336;-87
2021/11/21 09:30:39;;;;;;;6.87;4.40;;;5.30;94.30;;;;;;5012085;28;20241;-87
2021/11/21 09:33:05;;;;;;;7.20;4.37;;;5.30;93.80;;;;;;4998924;28;20193;-88
2021/11/21 09:35:31;;;;;;;5.43;4.80;;;5.40;94.40;;;;;;5018302;28;20209;-89
2021/11/21 09:37:58;;;;;;;7.73;4.63;;;5.20;95.50;;;;;;5016202;28;20198;-89
2021/11/21 09:40:24;;;;;;;7.27;4.87;;;5.30;96.00;;;;;;5012752;28;20201;-88
2021/11/21 09:42:50;;;;;;;6.77;5.33;;;5.40;94.90;;;;;;5012886;28;20205;-87
2021/11/21 09:45:17;;;;;;;8.33;5.50;;;5.40;94.80;;;;;;5013066;28;20213;-88
2021/11/21 09:47:51;;;;;;;8.13;6.30;;;5.40;95.80;;;;;;4998408;28;20277;-88
2021/11/21 09:50:19;;;;;;;8.10;5.97;;;5.40;95.90;;;;;;5001456;28;20205;-88
2021/11/21 09:52:46;;;;;;;7.13;6.17;;;5.50;95.90;;;;;;5002260;28;20190;-87
2021/11/21 09:55:12;;;;;;;8.60;6.60;;;5.60;95.00;;;;;;4984173;28;20727;-88
2021/11/21 09:57:38;;;;;;;8.87;7.07;;;5.60;95.00;;;;;;5019621;28;20212;-87
2021/11/21 10:00:06;;;;;;;8.70;6.63;;;5.40;96.70;;;;;;5021420;28;20205;-87
2021/11/21 10:02:38;;;;;;;11.00;8.10;;;5.30;97.30;;;;;;5013947;28;20186;-87
2021/11/21 10:05:25;;;;;;;9.17;7.40;;;5.20;98.50;;;;;;4997513;28;20241;-87
2021/11/21 10:08:01;;;;;;;11.17;8.17;;;5.20;98.50;;;;;;5009011;28;21097;-87
2021/11/21 10:10:27;;;;;;;11.17;8.20;;;5.20;99.30;;;;;;5017063;28;20207;-87
2021/11/21 10:12:53;;;;;;;9.13;7.60;;;5.30;98.10;;;;;;5019978;28;20198;-87
2021/11/21 10:15:19;;;;;;;13.93;10.10;;;5.10;99.60;;;;;;4997726;28;20201;-87
2021/11/21 10:17:49;;;;;;;10.93;8.40;;;5.10;99.90;;;;;;5010538;28;20248;-87
2021/11/21 10:20:20;;;;;;;12.70;8.83;;;5.30;99.40;;;;;;5014286;28;20217;-89
2021/11/21 10:22:55;;;;;;;13.30;9.33;;;5.30;99.90;;;;;;5018555;28;20182;-88
2021/11/21 10:25:33;;;;;;;11.27;9.33;;;5.30;99.90;;;;;;5012168;28;20194;-88
2021/11/21 10:28:26;;;;;;;13.30;9.30;;;5.20;99.90;;;;;;4998620;28;20236;-88
2021/11/21 10:31:00;;;;;;;11.50;8.50;;;5.30;99.20;;;;;;5020810;28;20246;-87
2021/11/21 10:33:32;;;;;;;11.77;9.10;;;5.40;98.60;;;;;;5015376;28;20197;-87
2021/11/21 10:36:02;;;;;;;12.03;9.23;;;5.50;99.30;;;;;;5002881;28;20197;-87
2021/11/21 10:38:40;;;;;;;14.23;9.03;;;5.50;98.40;;;;;;5013127;28;20218;-88
2021/11/21 10:41:19;;;;;;;11.60;9.70;;;5.30;99.10;;;;;;5013352;28;20220;-87
2021/11/21 10:44:12;;;;;;;12.40;9.03;;;5.50;99.00;;;;;;5012010;28;20189;-86
2021/11/21 10:46:48;;;;;;;13.27;9.63;;;5.50;98.80;;;;;;5012826;28;20219;-88
2021/11/21 10:49:39;;;;;;;13.33;9.70;;;5.40;99.90;;;;;;5019793;28;20703;-87
2021/11/21 10:52:12;;;;;;;10.10;8.20;;;5.50;99.80;;;;;;5011344;28;20202;-87
2021/11/21 10:54:43;;;;;;;10.17;8.43;;;5.40;98.50;;;;;;4999132;28;20217;-87
2021/11/21 10:57:21;;;;;;;11.77;8.90;;;5.50;98.60;;;;;;5014999;28;20195;-87
2021/11/21 10:59:55;;;;;;;15.60;9.17;;;5.50;98.90;;;;;;5017564;28;20205;-86
2021/11/21 11:02:29;;;;;;;13.20;8.70;;;5.50;99.60;;;;;;5011042;28;20235;-87
2021/11/21 11:05:02;;;;;;;13.87;9.03;;;5.50;99.60;;;;;;4993295;28;20225;-87
2021/11/21 11:07:31;;;;;;;11.33;8.17;;;5.70;97.40;;;;;;5013904;28;20205;-87
2021/11/21 11:09:57;;;;;;;9.73;8.73;;;5.90;97.20;;;;;;5014937;28;20234;-87
2021/11/21 11:12:24;;;;;;;10.63;8.63;;;5.80;98.10;;;;;;5016398;28;20248;-86
2021/11/21 11:14:53;;;;;;;10.03;8.40;;;5.70;97.90;;;;;;5018363;28;20205;-87
2021/11/21 11:17:19;;;;;;;11.97;8.73;;;5.60;98.00;;;;;;4983831;28;20196;-87
2021/11/21 11:19:45;;;;;;;12.47;9.17;;;5.70;96.90;;;;;;5016474;28;20253;-87
2021/11/21 11:22:12;;;;;;;9.90;7.93;;;5.60;97.70;;;;;;5014594;28;20202;-87
2021/11/21 11:24:42;;;;;;;12.40;9.20;;;5.70;96.80;;;;;;5005015;28;20220;-87
2021/11/21 11:27:27;;;;;;;10.77;8.90;;;5.60;98.20;;;;;;5003279;28;20251;-87
2021/11/21 11:29:54;;;;;;;10.67;8.57;;;5.60;98.20;;;;;;5010516;28;20269;-87
2021/11/21 11:32:23;;;;;;;9.83;8.77;;;5.60;98.00;;;;;;4988909;28;20201;-87
2021/11/21 11:34:50;;;;;;;9.93;7.87;;;5.70;97.00;;;;;;5013000;28;20843;-86
2021/11/21 11:37:44;;;;;;;11.00;8.27;;;5.50;97.50;;;;;;4988198;28;20194;-87
2021/11/21 11:40:29;;;;;;;12.27;8.77;;;5.70;97.40;;;;;;5014502;28;20213;-87
2021/11/21 11:43:24;;;;;;;11.83;9.00;;;5.70;97.40;;;;;;5018735;28;20194;-87
2021/11/21 11:46:06;;;;;;;10.70;9.23;;;5.80;96.30;;;;;;5008876;28;20779;-86
2021/11/21 11:48:34;;;;;;;11.70;9.23;;;5.80;97.10;;;;;;5005900;28;20206;-86
2021/11/21 11:51:19;;;;;;;10.93;9.07;;;5.80;96.90;;;;;;5017195;28;20239;-86
2021/11/21 11:53:46;;;;;;;10.30;8.60;;;5.90;97.10;;;;;;5013580;28;20185;-85
2021/11/21 11:56:14;;;;;;;10.80;9.23;;;6.00;95.80;;;;;;5009753;28;20193;-85
2021/11/21 11:58:55;;;;;;;9.07;8.17;;;5.90;96.20;;;;;;5013841;28;20209;-85
2021/11/21 12:01:38;;;;;;;10.03;8.07;;;5.90;96.60;;;;;;5016441;28;20194;-84
2021/11/21 12:04:30;;;;;;;9.47;8.47;;;5.90;95.70;;;;;;5007089;28;20283;-86
2021/11/21 12:06:58;;;;;;;8.80;7.77;;;5.80;96.10;;;;;;5014806;28;20202;-85
2021/11/21 12:09:26;;;;;;;10.80;7.60;;;6.00;94.90;;;;;;4998334;28;20292;-86
2021/11/21 12:12:03;;;;;;;9.10;7.90;;;6.10;94.30;;;;;;5013864;28;20182;-86
2021/11/21 12:14:35;;;;;;;9.63;8.13;;;5.90;95.80;;;;;;5015505;28;20244;-86
2021/11/21 12:17:04;;;;;;;9.00;7.43;;;5.90;95.30;;;;;;5012052;28;20197;-84
2021/11/21 12:19:49;;;;;;;9.90;7.20;;;6.10;95.20;;;;;;5016988;28;20205;-86
2021/11/21 12:22:33;;;;;;;9.33;7.43;;;5.90;95.40;;;;;;4997069;28;20196;-85
2021/11/21 12:25:26;;;;;;;12.30;7.63;;;6.10;94.40;;;;;;5009195;28;20213;-86
2021/11/21 12:28:02;;;;;;;8.60;7.10;;;5.80;95.40;;;;;;5011755;28;20681;-86
2021/11/21 12:30:33;;;;;;;8.87;7.13;;;5.80;95.80;;;;;;5009493;28;20190;-85
2021/11/21 12:33:02;;;;;;;9.60;7.23;;;5.80;95.00;;;;;;5013699;28;20199;-86
2021/11/21 12:35:28;;;;;;;9.00;7.37;;;5.80;95.10;;;;;;5020681;28;20197;-85
2021/11/21 12:37:56;;;;;;;7.83;7.03;;;5.80;95.70;;;;;;5012366;28;20265;-86
2021/11/21 12:40:24;;;;;;;8.47;7.47;;;5.80;95.50;;;;;;5019801;28;20225;-85
2021/11/21 12:43:10;;;;;;;8.50;7.20;;;5.90;95.70;;;;;;5005358;28;20206;-85
2021/11/21 12:45:37;;;;;;;9.50;7.07;;;5.80;95.50;;;;;;5024830;28;20217;-85
2021/11/21 12:48:04;;;;;;;9.57;7.97;;;5.90;95.00;;;;;;5003275;28;20197;-84
2021/11/21 12:50:32;;;;;;;8.33;6.50;;;5.90;94.70;;;;;;5026827;28;20280;-86